createdAt,value
2023-03-23T15:59:44.034Z,21.20
2023-03-23T16:02:22.891Z,21.10
2023-03-23T16:04:51.608Z,21.10
2023-03-23T16:07:23.291Z,21.10
2023-03-23T16:09:51.671Z,21.10
2023-03-23T16:12:19.125Z,21.00
2023-03-23T16:14:46.630Z,20.90
2023-03-23T16:17:17.725Z,20.90
2023-03-23T16:19:45.350Z,20.80
2023-03-23T16:22:12.860Z,20.70
2023-03-23T16:24:40.569Z,20.70
2023-03-23T16:27:10.491Z,20.70
2023-03-23T16:29:59.941Z,20.60
2023-03-23T16:32:25.461Z,20.60
2023-03-23T16:34:52.868Z,20.50
2023-03-23T16:37:20.664Z,20.50
2023-03-23T16:39:50.562Z,20.40
2023-03-23T16:42:19.587Z,20.30
2023-03-23T16:44:52.005Z,20.30
2023-03-23T16:47:23.709Z,20.20
2023-03-23T16:49:53.641Z,20.20
2023-03-23T16:52:22.028Z,20.10
2023-03-23T16:54:49.425Z,20.10
2023-03-23T16:57:16.813Z,20.00
2023-03-23T16:59:44.606Z,19.90
2023-03-23T17:02:12.912Z,19.80
2023-03-23T17:04:44.072Z,19.70
2023-03-23T17:07:13.065Z,19.70
2023-03-23T17:09:41.728Z,19.50
2023-03-23T17:12:10.258Z,19.50
2023-03-23T17:14:37.742Z,19.40
2023-03-23T17:17:05.164Z,19.30
2023-03-23T17:19:32.602Z,19.20
2023-03-23T17:22:00.207Z,19.20
2023-03-23T17:24:27.705Z,19.00
2023-03-23T17:26:55.539Z,19.00
2023-03-23T17:29:23.553Z,18.90
2023-03-23T17:31:51.844Z,18.80
2023-03-23T17:34:19.871Z,18.70
2023-03-23T17:36:47.333Z,18.60
2023-03-23T17:39:14.798Z,18.50
2023-03-23T17:41:42.383Z,18.50
2023-03-23T17:44:09.831Z,18.40
2023-03-23T17:46:37.253Z,18.30
2023-03-23T17:49:04.791Z,18.30
2023-03-23T17:51:32.211Z,18.20
2023-03-23T17:53:59.571Z,18.20
2023-03-23T17:56:26.996Z,18.10
2023-03-23T17:58:54.865Z,18.00
2023-03-23T18:01:22.387Z,18.00
2023-03-23T18:03:49.846Z,17.90
2023-03-23T18:06:17.442Z,17.80
2023-03-23T18:08:45.007Z,17.80
2023-03-23T18:11:12.666Z,17.80
2023-03-23T18:13:40.318Z,17.70
2023-03-23T18:16:08.679Z,17.70
2023-03-23T18:18:36.446Z,17.70
2023-03-23T18:21:08.192Z,17.60
2023-03-23T18:23:46.101Z,17.30
2023-03-23T18:26:21.905Z,17.10
2023-03-23T18:28:51.947Z,16.90
2023-03-23T18:31:20.393Z,16.80
2023-03-23T18:33:49.806Z,16.70
2023-03-23T18:36:20.598Z,16.60
2023-03-23T18:38:49.249Z,16.50
2023-03-23T18:41:17.693Z,16.50
2023-03-23T18:43:46.099Z,16.40
2023-03-23T18:46:13.818Z,16.40
2023-03-23T18:48:41.418Z,16.30
2023-03-23T18:51:09.461Z,16.30
2023-03-23T18:53:36.933Z,16.30
2023-03-23T18:56:12.820Z,16.30
2023-03-23T18:58:40.430Z,16.30
2023-03-23T19:01:11.125Z,16.20
2023-03-23T19:03:40.382Z,16.20
2023-03-23T19:06:17.539Z,16.10
2023-03-23T19:08:45.878Z,16.10
2023-03-23T19:11:14.282Z,16.00
2023-03-23T19:13:50.751Z,16.10
2023-03-23T19:16:26.114Z,16.10
2023-03-23T19:18:53.459Z,16.20
2023-03-23T19:21:25.266Z,16.20
2023-03-23T19:23:55.500Z,16.20
2023-03-23T19:26:27.386Z,16.10
2023-03-23T19:29:24.407Z,15.90
2023-03-23T19:31:44.704Z,15.80
2023-03-23T19:34:14.160Z,16.00
2023-03-23T19:36:48.162Z,16.00
2023-03-23T19:39:22.186Z,16.00
2023-03-23T19:41:51.005Z,15.90
2023-03-23T19:44:18.611Z,15.90
2023-03-23T19:46:47.987Z,15.90
2023-03-23T19:49:15.676Z,15.80
2023-03-23T19:51:43.120Z,15.70
2023-03-23T19:54:10.858Z,15.70
2023-03-23T19:56:38.508Z,15.60
2023-03-23T19:59:07.944Z,15.60
2023-03-23T20:01:35.516Z,15.50
2023-03-23T20:04:05.340Z,15.50
2023-03-23T20:06:33.878Z,15.40
2023-03-23T20:09:05.174Z,15.30
2023-03-23T20:11:33.994Z,15.30
2023-03-23T20:14:02.367Z,15.20
2023-03-23T20:16:29.820Z,15.10
2023-03-23T20:19:00.056Z,15.00
2023-03-23T20:21:28.718Z,14.90
2023-03-23T20:23:58.631Z,14.90
2023-03-23T20:26:29.612Z,14.80
2023-03-23T20:28:57.178Z,14.90
2023-03-23T20:31:27.311Z,14.90
2023-03-23T20:34:02.154Z,14.90
2023-03-23T20:36:35.157Z,14.80
2023-03-23T20:39:14.392Z,14.80
2023-03-23T20:41:43.623Z,14.80
2023-03-23T20:44:16.147Z,14.70
2023-03-23T20:46:45.407Z,14.70
2023-03-23T20:49:13.958Z,14.60
2023-03-23T20:51:41.776Z,14.70
2023-03-23T20:54:10.107Z,14.70
2023-03-23T20:56:40.459Z,14.80
2023-03-23T20:59:08.217Z,14.80
2023-03-23T21:01:37.092Z,14.80
2023-03-23T21:04:05.333Z,14.80
2023-03-23T21:06:34.003Z,14.70
2023-03-23T21:09:01.446Z,14.70
2023-03-23T21:11:30.115Z,14.70
2023-03-23T21:13:57.570Z,14.50
2023-03-23T21:16:25.230Z,14.30
2023-03-23T21:18:52.960Z,14.10
2023-03-23T21:21:20.782Z,13.90
2023-03-23T21:23:52.353Z,13.80
2023-03-23T21:26:22.634Z,13.80
2023-03-23T21:28:50.929Z,13.90
2023-03-23T21:31:18.758Z,13.90
2023-03-23T21:33:46.525Z,14.00
2023-03-23T21:36:13.984Z,14.20
2023-03-23T21:38:41.463Z,14.30
2023-03-23T21:41:11.700Z,14.20
2023-03-23T21:43:40.743Z,14.20
2023-03-23T21:46:09.636Z,14.20
2023-03-23T21:48:41.553Z,14.20
2023-03-23T21:51:15.485Z,14.20
2023-03-23T21:53:43.674Z,14.20
2023-03-23T21:56:11.829Z,14.20
2023-03-23T21:58:39.260Z,14.20
2023-03-23T22:01:08.245Z,14.10
2023-03-23T22:03:36.271Z,14.10
2023-03-23T22:06:10.740Z,14.10
2023-03-23T22:08:40.140Z,14.00
2023-03-23T22:11:13.822Z,14.00
2023-03-23T22:13:42.186Z,14.00
2023-03-23T22:16:13.426Z,14.10
2023-03-23T22:18:45.284Z,14.20
2023-03-23T22:21:14.571Z,14.20
2023-03-23T22:23:42.666Z,14.10
2023-03-23T22:26:12.175Z,14.00
2023-03-23T22:28:40.419Z,14.00
2023-03-23T22:31:14.155Z,14.00
2023-03-23T22:33:41.672Z,13.90
2023-03-23T22:36:09.747Z,13.80
2023-03-23T22:38:39.381Z,13.80
2023-03-23T22:41:08.518Z,13.90
2023-03-23T22:43:36.984Z,13.80
2023-03-23T22:46:05.170Z,13.80
2023-03-23T22:48:33.340Z,13.70
2023-03-23T22:51:01.460Z,13.70
2023-03-23T22:53:29.248Z,13.50
2023-03-23T22:55:57.820Z,13.50
2023-03-23T22:58:26.846Z,13.40
2023-03-23T23:01:00.807Z,13.40
2023-03-23T23:03:30.379Z,13.40
2023-03-23T23:05:59.281Z,13.30
2023-03-23T23:08:28.578Z,13.30
2023-03-23T23:10:58.635Z,13.30
2023-03-23T23:13:26.832Z,13.30
2023-03-23T23:15:56.934Z,13.20
2023-03-23T23:18:26.203Z,13.20
2023-03-23T23:20:58.875Z,13.20
2023-03-23T23:23:28.083Z,13.10
2023-03-23T23:25:56.379Z,13.20
2023-03-23T23:28:26.660Z,13.20
2023-03-23T23:30:54.668Z,13.30
2023-03-23T23:33:22.626Z,13.30
2023-03-23T23:35:50.297Z,13.30
2023-03-23T23:38:18.249Z,13.40
2023-03-23T23:40:47.271Z,13.40
2023-03-23T23:43:16.319Z,13.40
2023-03-23T23:45:44.362Z,13.40
2023-03-23T23:48:12.678Z,13.30
2023-03-23T23:50:40.224Z,13.20
2023-03-23T23:53:09.933Z,13.20
2023-03-23T23:55:39.420Z,13.30
2023-03-23T23:58:06.927Z,13.30
